Bullhead, SD (57621)

3:16 PM MST on January 28, 2015 (GMT -0700)
Mobridge Municipal | Change Station
CLOSE
Current Station
Airport
Location: Mobridge,
Elevation: 1716 ft
Nearby Weather Stations
Active Advisory: Wind Advisory

Elev 1716 ft 45.55 °N, 100.41 °W | Updated 24 minutes ago

Mostly Cloudy
Mostly Cloudy
42 °F
Feels Like 32 °F
N
26
Wind Variable Wind from NNW
Gusts 37 mph

Today
High -- | Low -- °F
--% Chance of Precip.
Yesterday
High -- | Low -- °F
Precip. -- in
7:10 AM 4:44 PM
Waxing Gibbous, 68% visible
Pressure 29.89 in
Visibility 7.0 miles
Clouds Mostly Cloudy 2300 ft
Windchill 32 °F
Dew Point 34 °F
Humidity 73%
Rainfall 0.00 in
Snow Depth Not available.
UV 0 out of 12
Pollen .10 out of 12
Air Quality Not available.
Flu Activity Not available.
METAR KMBG 282152Z AUTO 34023G32KT 7SM BKN023 06/01 A2985 RMK AO2 PK WND 32035/2104 SLP121 T00560011

More Conditions Fewer Conditions

Pressure 29.89 in
Visibility 7.0 miles
Clouds Mostly Cloudy 2300 ft
Windchill 32 °F
Dew Point 34 °F
Humidity 73%
Rainfall 0.00 in
Snow Depth Not available.
UV 0 out of 12
Pollen .10 out of 12
Air Quality Not available.
Flu Activity Not available.
METAR KMBG 282152Z AUTO 34023G32KT 7SM BKN023 06/01 A2985 RMK AO2 PK WND 32035/2104 SLP121 T00560011

More Conditions Fewer Conditions

10-Day Weather Forecast

Almanac

Astronomy

Jan. 28, 2015 Rise Set
Actual Time
Civil Twilight
Nautical Twilight
Astronomical Twilight
Moon
Length of Visible Light
Length of Day
Tomorrow will be .
, % of the Moon is Illuminated

Today's Extremes

State Highs State Lows

Community

WunderPhotos

Upload Photos

1,791,276 photos uploaded!

WunderBlogs® & News

Nearby

Air Quality

  Air Quality AQ Index Pollutant
Not available.

Snow Depth

Station Depth Elevation

Earthquake Activity

City Distance Mag. Time & Date
Minimum magnitude displayed is 2.5.

Coastal Water Temperatures

Place Temperature

Nearby Weather Stations